sensor_id;sensor_type;location;lat;lon;timestamp;temperature;humidity
5172;DHT22;2605;49.770;9.868;2022-09-29T00:00:34;7.30;99.90
5172;DHT22;2605;49.770;9.868;2022-09-29T00:03:00;7.30;99.90
5172;DHT22;2605;49.770;9.868;2022-09-29T00:05:26;7.20;99.90
5172;DHT22;2605;49.770;9.868;2022-09-29T00:07:52;7.20;99.90
5172;DHT22;2605;49.770;9.868;2022-09-29T00:10:17;7.20;99.90
5172;DHT22;2605;49.770;9.868;2022-09-29T00:12:43;7.20;99.90
5172;DHT22;2605;49.770;9.868;2022-09-29T00:15:09;7.20;99.90
5172;DHT22;2605;49.770;9.868;2022-09-29T00:17:35;7.20;99.90
5172;DHT22;2605;49.770;9.868;2022-09-29T00:20:01;7.10;99.90
5172;DHT22;2605;49.770;9.868;2022-09-29T00:22:26;7.00;99.90
5172;DHT22;2605;49.770;9.868;2022-09-29T00:24:52;7.00;99.90
5172;DHT22;2605;49.770;9.868;2022-09-29T00:27:18;7.00;99.90
5172;DHT22;2605;49.770;9.868;2022-09-29T00:29:44;7.00;99.90
5172;DHT22;2605;49.770;9.868;2022-09-29T00:32:10;7.00;99.90
5172;DHT22;2605;49.770;9.868;2022-09-29T00:34:35;7.00;99.90
5172;DHT22;2605;49.770;9.868;2022-09-29T00:37:01;7.00;99.90
5172;DHT22;2605;49.770;9.868;2022-09-29T00:39:27;7.00;99.90
5172;DHT22;2605;49.770;9.868;2022-09-29T00:41:52;6.90;99.90
5172;DHT22;2605;49.770;9.868;2022-09-29T00:46:57;6.90;99.90
5172;DHT22;2605;49.770;9.868;2022-09-29T00:52:02;6.90;99.90
5172;DHT22;2605;49.770;9.868;2022-09-29T00:54:32;6.90;99.90
5172;DHT22;2605;49.770;9.868;2022-09-29T00:57:01;6.80;99.90
5172;DHT22;2605;49.770;9.868;2022-09-29T00:59:39;6.80;99.90
5172;DHT22;2605;49.770;9.868;2022-09-29T01:02:07;6.80;99.90
5172;DHT22;2605;49.770;9.868;2022-09-29T01:04:33;6.80;99.90
5172;DHT22;2605;49.770;9.868;2022-09-29T01:06:59;6.90;99.90
5172;DHT22;2605;49.770;9.868;2022-09-29T01:09:28;6.90;99.90
5172;DHT22;2605;49.770;9.868;2022-09-29T01:11:56;7.00;99.90
5172;DHT22;2605;49.770;9.868;2022-09-29T01:14:25;7.00;99.90
5172;DHT22;2605;49.770;9.868;2022-09-29T01:16:52;7.10;99.90
5172;DHT22;2605;49.770;9.868;2022-09-29T01:22:35;7.20;99.90
5172;DHT22;2605;49.770;9.868;2022-09-29T01:28:52;7.20;99.90
5172;DHT22;2605;49.770;9.868;2022-09-29T01:31:41;7.30;99.90
5172;DHT22;2605;49.770;9.868;2022-09-29T01:34:33;7.30;99.90
5172;DHT22;2605;49.770;9.868;2022-09-29T01:39:50;7.30;99.90
5172;DHT22;2605;49.770;9.868;2022-09-29T01:42:23;7.30;99.90
5172;DHT22;2605;49.770;9.868;2022-09-29T01:45:14;7.40;99.90
5172;DHT22;2605;49.770;9.868;2022-09-29T01:47:46;7.50;99.90
5172;DHT22;2605;49.770;9.868;2022-09-29T01:50:18;7.50;99.90
5172;DHT22;2605;49.770;9.868;2022-09-29T01:52:50;7.50;99.90
5172;DHT22;2605;49.770;9.868;2022-09-29T01:55:21;7.50;99.90
5172;DHT22;2605;49.770;9.868;2022-09-29T01:57:53;7.50;99.90
5172;DHT22;2605;49.770;9.868;2022-09-29T02:00:21;7.40;99.90
5172;DHT22;2605;49.770;9.868;2022-09-29T02:02:54;7.40;99.90
5172;DHT22;2605;49.770;9.868;2022-09-29T02:05:28;7.40;99.90
5172;DHT22;2605;49.770;9.868;2022-09-29T02:07:59;7.40;99.90
5172;DHT22;2605;49.770;9.868;2022-09-29T02:10:32;7.30;99.90
5172;DHT22;2605;49.770;9.868;2022-09-29T02:13:02;7.40;99.90
5172;DHT22;2605;49.770;9.868;2022-09-29T02:15:32;7.30;99.90
5172;DHT22;2605;49.770;9.868;2022-09-29T02:18:12;7.40;99.90
5172;DHT22;2605;49.770;9.868;2022-09-29T02:20:39;7.40;99.90
5172;DHT22;2605;49.770;9.868;2022-09-29T02:23:04;7.40;99.90
5172;DHT22;2605;49.770;9.868;2022-09-29T02:25:34;7.40;99.90
5172;DHT22;2605;49.770;9.868;2022-09-29T02:28:00;7.40;99.90
5172;DHT22;2605;49.770;9.868;2022-09-29T02:30:26;7.30;99.90
5172;DHT22;2605;49.770;9.868;2022-09-29T02:32:51;7.30;99.90
5172;DHT22;2605;49.770;9.868;2022-09-29T02:35:17;7.20;99.90
5172;DHT22;2605;49.770;9.868;2022-09-29T02:38:16;7.20;99.90
5172;DHT22;2605;49.770;9.868;2022-09-29T02:43:53;7.20;99.90
5172;DHT22;2605;49.770;9.868;2022-09-29T02:46:52;7.10;99.90
5172;DHT22;2605;49.770;9.868;2022-09-29T02:55:29;7.10;99.90
5172;DHT22;2605;49.770;9.868;2022-09-29T03:00:24;7.00;99.90
5172;DHT22;2605;49.770;9.868;2022-09-29T03:02:50;7.00;99.90
5172;DHT22;2605;49.770;9.868;2022-09-29T03:05:21;7.00;99.90
5172;DHT22;2605;49.770;9.868;2022-09-29T03:07:47;7.00;99.90
5172;DHT22;2605;49.770;9.868;2022-09-29T03:10:14;7.00;99.90
5172;DHT22;2605;49.770;9.868;2022-09-29T03:12:40;7.00;99.90
5172;DHT22;2605;49.770;9.868;2022-09-29T03:15:07;7.00;99.90
5172;DHT22;2605;49.770;9.868;2022-09-29T03:17:33;7.00;99.90
5172;DHT22;2605;49.770;9.868;2022-09-29T03:19:58;7.00;99.90
5172;DHT22;2605;49.770;9.868;2022-09-29T03:22:24;7.00;99.90
5172;DHT22;2605;49.770;9.868;2022-09-29T03:24:50;6.90;99.90
5172;DHT22;2605;49.770;9.868;2022-09-29T03:27:16;6.90;99.90
5172;DHT22;2605;49.770;9.868;2022-09-29T03:29:41;6.90;99.90
5172;DHT22;2605;49.770;9.868;2022-09-29T03:32:07;6.90;99.90
5172;DHT22;2605;49.770;9.868;2022-09-29T03:34:33;6.90;99.90
5172;DHT22;2605;49.770;9.868;2022-09-29T03:36:59;6.90;99.90
5172;DHT22;2605;49.770;9.868;2022-09-29T03:39:25;6.90;99.90
5172;DHT22;2605;49.770;9.868;2022-09-29T03:41:50;6.90;99.90
5172;DHT22;2605;49.770;9.868;2022-09-29T03:44:16;6.90;99.90
5172;DHT22;2605;49.770;9.868;2022-09-29T03:46:42;7.00;99.90
5172;DHT22;2605;49.770;9.868;2022-09-29T03:49:11;7.00;99.90
5172;DHT22;2605;49.770;9.868;2022-09-29T03:51:38;6.90;99.90
5172;DHT22;2605;49.770;9.868;2022-09-29T03:54:03;6.90;99.90
5172;DHT22;2605;49.770;9.868;2022-09-29T03:56:29;6.80;99.90
5172;DHT22;2605;49.770;9.868;2022-09-29T03:58:55;6.80;99.90
5172;DHT22;2605;49.770;9.868;2022-09-29T04:01:21;6.80;99.90
5172;DHT22;2605;49.770;9.868;2022-09-29T04:03:46;6.80;99.90
5172;DHT22;2605;49.770;9.868;2022-09-29T04:06:12;6.80;99.90
5172;DHT22;2605;49.770;9.868;2022-09-29T04:08:37;6.70;99.90
5172;DHT22;2605;49.770;9.868;2022-09-29T04:11:04;6.70;99.90
5172;DHT22;2605;49.770;9.868;2022-09-29T04:13:30;6.70;99.90
5172;DHT22;2605;49.770;9.868;2022-09-29T04:16:04;6.80;99.90
5172;DHT22;2605;49.770;9.868;2022-09-29T04:18:30;6.70;99.90
5172;DHT22;2605;49.770;9.868;2022-09-29T04:20:57;6.80;99.90
5172;DHT22;2605;49.770;9.868;2022-09-29T04:23:26;6.80;99.90
5172;DHT22;2605;49.770;9.868;2022-09-29T04:25:55;6.80;99.90
5172;DHT22;2605;49.770;9.868;2022-09-29T04:28:21;6.80;99.90
5172;DHT22;2605;49.770;9.868;2022-09-29T04:30:47;6.80;99.90
5172;DHT22;2605;49.770;9.868;2022-09-29T04:33:12;6.80;99.90
5172;DHT22;2605;49.770;9.868;2022-09-29T04:35:38;6.80;99.90
5172;DHT22;2605;49.770;9.868;2022-09-29T04:38:03;6.80;99.90
5172;DHT22;2605;49.770;9.868;2022-09-29T04:40:29;6.80;99.90
5172;DHT22;2605;49.770;9.868;2022-09-29T04:42:55;6.80;99.90
5172;DHT22;2605;49.770;9.868;2022-09-29T04:45:20;6.80;99.90
5172;DHT22;2605;49.770;9.868;2022-09-29T04:47:46;6.80;99.90
5172;DHT22;2605;49.770;9.868;2022-09-29T04:50:11;6.80;99.90
5172;DHT22;2605;49.770;9.868;2022-09-29T04:52:37;6.80;99.90
5172;DHT22;2605;49.770;9.868;2022-09-29T04:55:03;6.80;99.90
5172;DHT22;2605;49.770;9.868;2022-09-29T04:57:29;6.70;99.90
5172;DHT22;2605;49.770;9.868;2022-09-29T04:59:54;6.70;99.90
5172;DHT22;2605;49.770;9.868;2022-09-29T05:02:21;6.60;99.90
5172;DHT22;2605;49.770;9.868;2022-09-29T05:04:46;6.60;99.90
5172;DHT22;2605;49.770;9.868;2022-09-29T05:07:12;6.50;99.90
5172;DHT22;2605;49.770;9.868;2022-09-29T05:09:38;6.40;99.90
5172;DHT22;2605;49.770;9.868;2022-09-29T05:12:03;6.40;99.90
5172;DHT22;2605;49.770;9.868;2022-09-29T05:14:29;6.30;99.90
5172;DHT22;2605;49.770;9.868;2022-09-29T05:16:55;6.30;99.90
5172;DHT22;2605;49.770;9.868;2022-09-29T05:19:20;6.20;99.90
5172;DHT22;2605;49.770;9.868;2022-09-29T05:21:46;6.10;99.90
5172;DHT22;2605;49.770;9.868;2022-09-29T05:24:12;6.10;99.90
5172;DHT22;2605;49.770;9.868;2022-09-29T05:26:37;6.00;99.90
5172;DHT22;2605;49.770;9.868;2022-09-29T05:29:03;6.00;99.90
5172;DHT22;2605;49.770;9.868;2022-09-29T05:31:29;6.00;99.90
5172;DHT22;2605;49.770;9.868;2022-09-29T05:33:55;6.00;99.90
5172;DHT22;2605;49.770;9.868;2022-09-29T05:36:21;6.00;99.90
5172;DHT22;2605;49.770;9.868;2022-09-29T05:38:47;6.00;99.90
5172;DHT22;2605;49.770;9.868;2022-09-29T05:41:14;6.10;99.90
5172;DHT22;2605;49.770;9.868;2022-09-29T05:43:42;6.30;99.90
5172;DHT22;2605;49.770;9.868;2022-09-29T05:46:09;6.40;99.90
5172;DHT22;2605;49.770;9.868;2022-09-29T05:48:35;6.40;99.90
5172;DHT22;2605;49.770;9.868;2022-09-29T05:51:10;6.50;99.90
5172;DHT22;2605;49.770;9.868;2022-09-29T05:53:36;6.50;99.90
5172;DHT22;2605;49.770;9.868;2022-09-29T05:56:06;6.60;99.90
5172;DHT22;2605;49.770;9.868;2022-09-29T05:58:36;6.50;99.90
5172;DHT22;2605;49.770;9.868;2022-09-29T06:01:13;6.50;99.90
5172;DHT22;2605;49.770;9.868;2022-09-29T06:03:39;6.60;99.90
5172;DHT22;2605;49.770;9.868;2022-09-29T06:06:16;6.60;99.90
5172;DHT22;2605;49.770;9.868;2022-09-29T06:08:43;6.60;99.90
5172;DHT22;2605;49.770;9.868;2022-09-29T06:11:31;6.70;99.90
5172;DHT22;2605;49.770;9.868;2022-09-29T06:13:56;6.70;99.90
5172;DHT22;2605;49.770;9.868;2022-09-29T06:16:25;6.80;99.90
5172;DHT22;2605;49.770;9.868;2022-09-29T06:18:51;7.00;99.90
5172;DHT22;2605;49.770;9.868;2022-09-29T06:21:22;7.00;99.90
5172;DHT22;2605;49.770;9.868;2022-09-29T06:23:48;7.00;99.90
5172;DHT22;2605;49.770;9.868;2022-09-29T06:26:15;7.10;99.90
5172;DHT22;2605;49.770;9.868;2022-09-29T06:28:41;7.10;99.90
5172;DHT22;2605;49.770;9.868;2022-09-29T06:31:16;7.20;99.90
5172;DHT22;2605;49.770;9.868;2022-09-29T06:33:44;7.10;99.90
5172;DHT22;2605;49.770;9.868;2022-09-29T06:39:03;6.90;99.90
5172;DHT22;2605;49.770;9.868;2022-09-29T06:41:29;6.90;99.90
5172;DHT22;2605;49.770;9.868;2022-09-29T06:43:55;6.90;99.90
5172;DHT22;2605;49.770;9.868;2022-09-29T06:46:21;7.00;99.90
5172;DHT22;2605;49.770;9.868;2022-09-29T06:48:47;7.10;99.90
5172;DHT22;2605;49.770;9.868;2022-09-29T06:51:12;7.20;99.90
5172;DHT22;2605;49.770;9.868;2022-09-29T06:53:39;7.60;99.90
5172;DHT22;2605;49.770;9.868;2022-09-29T06:56:06;8.00;99.90
5172;DHT22;2605;49.770;9.868;2022-09-29T06:58:31;8.20;99.90
5172;DHT22;2605;49.770;9.868;2022-09-29T07:01:01;8.50;99.90
5172;DHT22;2605;49.770;9.868;2022-09-29T07:03:28;8.70;99.90
5172;DHT22;2605;49.770;9.868;2022-09-29T07:05:54;8.80;99.90
5172;DHT22;2605;49.770;9.868;2022-09-29T07:08:19;8.90;99.90
5172;DHT22;2605;49.770;9.868;2022-09-29T07:10:45;9.10;99.90
5172;DHT22;2605;49.770;9.868;2022-09-29T07:13:11;9.30;99.90
5172;DHT22;2605;49.770;9.868;2022-09-29T07:15:37;9.30;99.90
5172;DHT22;2605;49.770;9.868;2022-09-29T07:18:05;9.40;99.90
5172;DHT22;2605;49.770;9.868;2022-09-29T07:20:31;9.50;99.90
5172;DHT22;2605;49.770;9.868;2022-09-29T07:22:57;9.50;99.90
5172;DHT22;2605;49.770;9.868;2022-09-29T07:25:22;9.60;99.90
5172;DHT22;2605;49.770;9.868;2022-09-29T07:27:51;9.80;99.90
5172;DHT22;2605;49.770;9.868;2022-09-29T07:30:17;10.00;99.90
5172;DHT22;2605;49.770;9.868;2022-09-29T07:32:43;10.10;99.90
5172;DHT22;2605;49.770;9.868;2022-09-29T07:35:09;10.30;99.90
5172;DHT22;2605;49.770;9.868;2022-09-29T07:37:34;10.60;99.90
5172;DHT22;2605;49.770;9.868;2022-09-29T07:40:00;10.70;99.90
5172;DHT22;2605;49.770;9.868;2022-09-29T07:42:26;10.70;99.90
5172;DHT22;2605;49.770;9.868;2022-09-29T07:44:52;10.90;99.90
5172;DHT22;2605;49.770;9.868;2022-09-29T07:47:18;10.80;99.90
5172;DHT22;2605;49.770;9.868;2022-09-29T07:49:43;10.80;99.90
5172;DHT22;2605;49.770;9.868;2022-09-29T07:52:11;10.90;99.90
5172;DHT22;2605;49.770;9.868;2022-09-29T07:54:36;10.80;99.90
5172;DHT22;2605;49.770;9.868;2022-09-29T07:57:02;10.80;99.90
5172;DHT22;2605;49.770;9.868;2022-09-29T07:59:28;10.60;99.90
5172;DHT22;2605;49.770;9.868;2022-09-29T08:01:54;10.60;99.90
5172;DHT22;2605;49.770;9.868;2022-09-29T08:04:20;10.60;99.90
5172;DHT22;2605;49.770;9.868;2022-09-29T08:06:46;10.70;99.90
5172;DHT22;2605;49.770;9.868;2022-09-29T08:09:12;10.70;99.90
5172;DHT22;2605;49.770;9.868;2022-09-29T08:11:40;10.80;99.90
5172;DHT22;2605;49.770;9.868;2022-09-29T08:14:07;10.70;99.90
5172;DHT22;2605;49.770;9.868;2022-09-29T08:16:33;10.80;99.90
5172;DHT22;2605;49.770;9.868;2022-09-29T08:19:00;11.00;99.90
5172;DHT22;2605;49.770;9.868;2022-09-29T08:21:26;11.10;99.90
5172;DHT22;2605;49.770;9.868;2022-09-29T08:23:52;11.30;99.90
5172;DHT22;2605;49.770;9.868;2022-09-29T08:26:20;11.60;99.90
5172;DHT22;2605;49.770;9.868;2022-09-29T08:28:47;11.70;99.90
5172;DHT22;2605;49.770;9.868;2022-09-29T08:31:15;11.90;99.90
5172;DHT22;2605;49.770;9.868;2022-09-29T08:33:45;12.10;99.90
5172;DHT22;2605;49.770;9.868;2022-09-29T08:36:10;12.50;99.90
5172;DHT22;2605;49.770;9.868;2022-09-29T08:38:50;12.80;99.90
5172;DHT22;2605;49.770;9.868;2022-09-29T08:41:38;12.80;99.90
5172;DHT22;2605;49.770;9.868;2022-09-29T08:44:33;12.80;99.90
5172;DHT22;2605;49.770;9.868;2022-09-29T08:50:24;12.60;99.90
5172;DHT22;2605;49.770;9.868;2022-09-29T08:52:54;12.60;99.90
5172;DHT22;2605;49.770;9.868;2022-09-29T08:55:35;12.90;99.90
5172;DHT22;2605;49.770;9.868;2022-09-29T08:58:10;12.90;99.90
5172;DHT22;2605;49.770;9.868;2022-09-29T09:08:57;13.00;99.90
5172;DHT22;2605;49.770;9.868;2022-09-29T09:17:10;12.00;99.90
5172;DHT22;2605;49.770;9.868;2022-09-29T09:20:17;11.40;99.90
5172;DHT22;2605;49.770;9.868;2022-09-29T09:23:19;11.20;99.90
5172;DHT22;2605;49.770;9.868;2022-09-29T09:25:50;11.20;99.90
5172;DHT22;2605;49.770;9.868;2022-09-29T09:28:32;11.30;99.90
5172;DHT22;2605;49.770;9.868;2022-09-29T09:36:39;11.90;99.90
5172;DHT22;2605;49.770;9.868;2022-09-29T09:42:07;11.90;99.90
5172;DHT22;2605;49.770;9.868;2022-09-29T09:44:40;11.60;99.90
5172;DHT22;2605;49.770;9.868;2022-09-29T09:47:28;11.50;99.90
5172;DHT22;2605;49.770;9.868;2022-09-29T09:50:02;11.60;99.90
5172;DHT22;2605;49.770;9.868;2022-09-29T09:52:43;11.60;99.90
5172;DHT22;2605;49.770;9.868;2022-09-29T09:55:18;11.90;99.90
5172;DHT22;2605;49.770;9.868;2022-09-29T09:58:08;12.30;99.90
5172;DHT22;2605;49.770;9.868;2022-09-29T10:00:50;12.30;99.90
5172;DHT22;2605;49.770;9.868;2022-09-29T10:03:16;12.70;99.90
5172;DHT22;2605;49.770;9.868;2022-09-29T10:05:44;12.80;99.90
5172;DHT22;2605;49.770;9.868;2022-09-29T10:08:22;13.20;99.90
5172;DHT22;2605;49.770;9.868;2022-09-29T10:10:49;13.50;99.90
5172;DHT22;2605;49.770;9.868;2022-09-29T10:13:18;13.60;99.90
5172;DHT22;2605;49.770;9.868;2022-09-29T10:16:12;13.80;99.90
5172;DHT22;2605;49.770;9.868;2022-09-29T10:18:43;14.10;99.90
5172;DHT22;2605;49.770;9.868;2022-09-29T10:23:52;14.30;99.90
5172;DHT22;2605;49.770;9.868;2022-09-29T10:26:21;14.30;99.90
5172;DHT22;2605;49.770;9.868;2022-09-29T10:28:56;13.80;99.90
5172;DHT22;2605;49.770;9.868;2022-09-29T10:31:28;13.90;99.90
5172;DHT22;2605;49.770;9.868;2022-09-29T10:34:23;14.10;99.90
5172;DHT22;2605;49.770;9.868;2022-09-29T10:37:22;14.50;99.90
5172;DHT22;2605;49.770;9.868;2022-09-29T10:39:49;14.80;99.90
5172;DHT22;2605;49.770;9.868;2022-09-29T10:42:24;14.50;99.90
5172;DHT22;2605;49.770;9.868;2022-09-29T10:45:15;14.00;99.90
5172;DHT22;2605;49.770;9.868;2022-09-29T10:47:45;13.50;99.90
5172;DHT22;2605;49.770;9.868;2022-09-29T10:50:19;13.50;99.90
5172;DHT22;2605;49.770;9.868;2022-09-29T10:52:52;13.60;99.90
5172;DHT22;2605;49.770;9.868;2022-09-29T10:55:30;13.70;99.90
5172;DHT22;2605;49.770;9.868;2022-09-29T10:57:58;13.50;99.90
5172;DHT22;2605;49.770;9.868;2022-09-29T11:02:52;13.30;99.90
5172;DHT22;2605;49.770;9.868;2022-09-29T11:05:20;13.10;99.90
5172;DHT22;2605;49.770;9.868;2022-09-29T11:07:49;13.30;99.90
5172;DHT22;2605;49.770;9.868;2022-09-29T11:10:28;13.40;99.90
5172;DHT22;2605;49.770;9.868;2022-09-29T11:12:54;13.30;99.90
5172;DHT22;2605;49.770;9.868;2022-09-29T11:15:28;13.40;99.90
5172;DHT22;2605;49.770;9.868;2022-09-29T11:17:55;13.60;99.90
5172;DHT22;2605;49.770;9.868;2022-09-29T11:20:24;13.50;99.90
5172;DHT22;2605;49.770;9.868;2022-09-29T11:23:21;13.10;99.90
5172;DHT22;2605;49.770;9.868;2022-09-29T11:25:51;13.10;99.90
5172;DHT22;2605;49.770;9.868;2022-09-29T11:28:50;13.00;99.90
5172;DHT22;2605;49.770;9.868;2022-09-29T11:31:31;13.00;99.90
5172;DHT22;2605;49.770;9.868;2022-09-29T11:34:58;13.20;99.90
5172;DHT22;2605;49.770;9.868;2022-09-29T11:40:32;13.50;99.90
5172;DHT22;2605;49.770;9.868;2022-09-29T11:49:16;14.90;99.90
5172;DHT22;2605;49.770;9.868;2022-09-29T11:51:50;15.20;99.90
5172;DHT22;2605;49.770;9.868;2022-09-29T12:00:11;17.10;99.90
5172;DHT22;2605;49.770;9.868;2022-09-29T12:02:55;17.60;99.90
5172;DHT22;2605;49.770;9.868;2022-09-29T12:08:23;18.20;99.90
5172;DHT22;2605;49.770;9.868;2022-09-29T12:13:44;18.40;99.90
5172;DHT22;2605;49.770;9.868;2022-09-29T12:16:17;18.80;99.90
5172;DHT22;2605;49.770;9.868;2022-09-29T12:21:15;19.10;99.90
5172;DHT22;2605;49.770;9.868;2022-09-29T12:23:42;19.30;99.90
5172;DHT22;2605;49.770;9.868;2022-09-29T12:26:18;19.30;99.90
5172;DHT22;2605;49.770;9.868;2022-09-29T12:28:59;19.50;99.90
5172;DHT22;2605;49.770;9.868;2022-09-29T12:31:38;19.70;99.90
5172;DHT22;2605;49.770;9.868;2022-09-29T12:37:00;19.40;99.90
5172;DHT22;2605;49.770;9.868;2022-09-29T12:39:58;19.30;99.90
5172;DHT22;2605;49.770;9.868;2022-09-29T12:48:43;18.30;99.90
5172;DHT22;2605;49.770;9.868;2022-09-29T12:51:38;17.90;99.90
5172;DHT22;2605;49.770;9.868;2022-09-29T12:57:03;16.90;99.90
5172;DHT22;2605;49.770;9.868;2022-09-29T13:02:36;17.20;99.90
5172;DHT22;2605;49.770;9.868;2022-09-29T13:05:11;17.30;99.90
5172;DHT22;2605;49.770;9.868;2022-09-29T13:10:57;17.40;99.90
5172;DHT22;2605;49.770;9.868;2022-09-29T13:13:34;17.40;99.90
5172;DHT22;2605;49.770;9.868;2022-09-29T13:16:16;17.40;99.90
5172;DHT22;2605;49.770;9.868;2022-09-29T13:21:53;17.50;99.90
5172;DHT22;2605;49.770;9.868;2022-09-29T13:27:35;16.20;99.90
5172;DHT22;2605;49.770;9.868;2022-09-29T13:32:41;14.70;99.90
5172;DHT22;2605;49.770;9.868;2022-09-29T13:35:18;14.40;99.90
5172;DHT22;2605;49.770;9.868;2022-09-29T13:38:13;14.40;99.90
5172;DHT22;2605;49.770;9.868;2022-09-29T13:40:38;14.50;99.90
5172;DHT22;2605;49.770;9.868;2022-09-29T13:43:03;14.40;99.90
5172;DHT22;2605;49.770;9.868;2022-09-29T13:48:00;14.20;99.90
5172;DHT22;2605;49.770;9.868;2022-09-29T13:50:43;13.80;99.90
5172;DHT22;2605;49.770;9.868;2022-09-29T13:55:54;13.90;99.90
5172;DHT22;2605;49.770;9.868;2022-09-29T13:58:24;14.10;99.90
5172;DHT22;2605;49.770;9.868;2022-09-29T14:00:51;14.30;99.90
5172;DHT22;2605;49.770;9.868;2022-09-29T14:03:27;14.50;99.90
5172;DHT22;2605;49.770;9.868;2022-09-29T14:06:21;14.70;99.90
5172;DHT22;2605;49.770;9.868;2022-09-29T14:11:42;14.90;99.90
5172;DHT22;2605;49.770;9.868;2022-09-29T14:17:28;14.80;99.90
5172;DHT22;2605;49.770;9.868;2022-09-29T14:19:59;14.80;99.90
5172;DHT22;2605;49.770;9.868;2022-09-29T14:32:52;13.70;99.90
5172;DHT22;2605;49.770;9.868;2022-09-29T14:35:22;13.30;99.90
5172;DHT22;2605;49.770;9.868;2022-09-29T14:38:18;13.30;99.90
5172;DHT22;2605;49.770;9.868;2022-09-29T14:43:20;12.90;99.90
5172;DHT22;2605;49.770;9.868;2022-09-29T14:49:32;13.00;99.90
5172;DHT22;2605;49.770;9.868;2022-09-29T14:58:03;13.40;99.90
5172;DHT22;2605;49.770;9.868;2022-09-29T15:03:46;13.70;99.90
5172;DHT22;2605;49.770;9.868;2022-09-29T15:06:15;14.10;99.90
5172;DHT22;2605;49.770;9.868;2022-09-29T15:08:42;14.80;99.90
5172;DHT22;2605;49.770;9.868;2022-09-29T15:11:31;15.80;99.90
5172;DHT22;2605;49.770;9.868;2022-09-29T15:13:59;15.80;99.90
5172;DHT22;2605;49.770;9.868;2022-09-29T15:19:10;16.10;99.90
5172;DHT22;2605;49.770;9.868;2022-09-29T15:21:54;16.30;99.90
5172;DHT22;2605;49.770;9.868;2022-09-29T15:24:30;16.20;99.90
5172;DHT22;2605;49.770;9.868;2022-09-29T15:27:03;16.30;99.90
5172;DHT22;2605;49.770;9.868;2022-09-29T15:29:30;16.40;99.90
5172;DHT22;2605;49.770;9.868;2022-09-29T15:31:55;16.40;99.90
5172;DHT22;2605;49.770;9.868;2022-09-29T15:34:23;16.10;99.90
5172;DHT22;2605;49.770;9.868;2022-09-29T15:36:51;15.90;99.90
5172;DHT22;2605;49.770;9.868;2022-09-29T15:41:59;15.40;99.90
5172;DHT22;2605;49.770;9.868;2022-09-29T15:44:27;15.10;99.90
5172;DHT22;2605;49.770;9.868;2022-09-29T15:46:56;15.00;99.90
5172;DHT22;2605;49.770;9.868;2022-09-29T15:49:24;15.00;99.90
5172;DHT22;2605;49.770;9.868;2022-09-29T15:52:02;14.70;99.90
5172;DHT22;2605;49.770;9.868;2022-09-29T15:54:37;14.60;99.90
5172;DHT22;2605;49.770;9.868;2022-09-29T15:57:04;14.40;99.90
5172;DHT22;2605;49.770;9.868;2022-09-29T15:59:50;14.30;99.90
5172;DHT22;2605;49.770;9.868;2022-09-29T16:04:57;13.80;99.90
5172;DHT22;2605;49.770;9.868;2022-09-29T16:07:30;13.60;99.90
5172;DHT22;2605;49.770;9.868;2022-09-29T16:10:03;13.40;99.90
5172;DHT22;2605;49.770;9.868;2022-09-29T16:12:36;13.30;99.90
5172;DHT22;2605;49.770;9.868;2022-09-29T16:15:02;13.10;99.90
5172;DHT22;2605;49.770;9.868;2022-09-29T16:17:29;12.90;99.90
5172;DHT22;2605;49.770;9.868;2022-09-29T16:19:54;12.70;99.90
5172;DHT22;2605;49.770;9.868;2022-09-29T16:22:24;12.60;99.90
5172;DHT22;2605;49.770;9.868;2022-09-29T16:25:20;12.60;99.90
5172;DHT22;2605;49.770;9.868;2022-09-29T16:27:55;12.50;99.90
5172;DHT22;2605;49.770;9.868;2022-09-29T16:30:30;12.40;99.90
5172;DHT22;2605;49.770;9.868;2022-09-29T16:33:12;12.30;99.90
5172;DHT22;2605;49.770;9.868;2022-09-29T16:35:40;12.60;99.90
5172;DHT22;2605;49.770;9.868;2022-09-29T16:40:37;12.60;99.90
5172;DHT22;2605;49.770;9.868;2022-09-29T16:43:04;12.50;99.90
5172;DHT22;2605;49.770;9.868;2022-09-29T16:45:30;12.30;99.90
5172;DHT22;2605;49.770;9.868;2022-09-29T16:47:59;12.20;99.90
5172;DHT22;2605;49.770;9.868;2022-09-29T16:50:24;12.00;99.90
5172;DHT22;2605;49.770;9.868;2022-09-29T16:52:50;11.80;99.90
5172;DHT22;2605;49.770;9.868;2022-09-29T16:58:04;11.50;99.90
5172;DHT22;2605;49.770;9.868;2022-09-29T17:00:32;11.40;99.90
5172;DHT22;2605;49.770;9.868;2022-09-29T17:02:58;11.20;99.90
5172;DHT22;2605;49.770;9.868;2022-09-29T17:05:26;11.10;99.90
5172;DHT22;2605;49.770;9.868;2022-09-29T17:07:59;11.10;99.90
5172;DHT22;2605;49.770;9.868;2022-09-29T17:10:25;10.90;99.90
5172;DHT22;2605;49.770;9.868;2022-09-29T17:12:51;10.80;99.90
5172;DHT22;2605;49.770;9.868;2022-09-29T17:15:17;10.60;99.90
5172;DHT22;2605;49.770;9.868;2022-09-29T17:17:44;10.40;99.90
5172;DHT22;2605;49.770;9.868;2022-09-29T17:20:15;10.30;99.90
5172;DHT22;2605;49.770;9.868;2022-09-29T17:22:42;10.10;99.90
5172;DHT22;2605;49.770;9.868;2022-09-29T17:25:10;10.00;99.90
5172;DHT22;2605;49.770;9.868;2022-09-29T17:27:36;9.90;99.90
5172;DHT22;2605;49.770;9.868;2022-09-29T17:30:22;9.70;99.90
5172;DHT22;2605;49.770;9.868;2022-09-29T17:32:50;9.60;99.90
5172;DHT22;2605;49.770;9.868;2022-09-29T17:35:18;9.50;99.90
5172;DHT22;2605;49.770;9.868;2022-09-29T17:37:45;9.40;99.90
5172;DHT22;2605;49.770;9.868;2022-09-29T17:42:49;9.20;99.90
5172;DHT22;2605;49.770;9.868;2022-09-29T17:45:16;9.00;99.90
5172;DHT22;2605;49.770;9.868;2022-09-29T17:47:42;9.00;99.90
5172;DHT22;2605;49.770;9.868;2022-09-29T17:50:19;8.90;99.90
5172;DHT22;2605;49.770;9.868;2022-09-29T17:52:46;8.80;99.90
5172;DHT22;2605;49.770;9.868;2022-09-29T17:55:12;8.70;99.90
5172;DHT22;2605;49.770;9.868;2022-09-29T17:57:37;8.60;99.90
5172;DHT22;2605;49.770;9.868;2022-09-29T18:00:23;8.50;99.90
5172;DHT22;2605;49.770;9.868;2022-09-29T18:02:49;8.40;99.90
5172;DHT22;2605;49.770;9.868;2022-09-29T18:05:16;8.40;99.90
5172;DHT22;2605;49.770;9.868;2022-09-29T18:07:47;8.30;99.90
5172;DHT22;2605;49.770;9.868;2022-09-29T18:10:56;8.20;99.90
5172;DHT22;2605;49.770;9.868;2022-09-29T18:13:21;8.00;99.90
5172;DHT22;2605;49.770;9.868;2022-09-29T18:15:47;7.90;99.90
5172;DHT22;2605;49.770;9.868;2022-09-29T18:18:15;7.80;99.90
5172;DHT22;2605;49.770;9.868;2022-09-29T18:20:42;7.70;99.90
5172;DHT22;2605;49.770;9.868;2022-09-29T18:23:10;7.70;99.90
5172;DHT22;2605;49.770;9.868;2022-09-29T18:25:38;7.80;99.90
5172;DHT22;2605;49.770;9.868;2022-09-29T18:28:03;7.80;99.90
5172;DHT22;2605;49.770;9.868;2022-09-29T18:30:33;7.80;99.90
5172;DHT22;2605;49.770;9.868;2022-09-29T18:33:05;7.90;99.90
5172;DHT22;2605;49.770;9.868;2022-09-29T18:35:32;7.90;99.90
5172;DHT22;2605;49.770;9.868;2022-09-29T18:37:59;7.90;99.90
5172;DHT22;2605;49.770;9.868;2022-09-29T18:40:27;7.90;99.90
5172;DHT22;2605;49.770;9.868;2022-09-29T18:42:53;7.80;99.90
5172;DHT22;2605;49.770;9.868;2022-09-29T18:45:23;7.80;99.90
5172;DHT22;2605;49.770;9.868;2022-09-29T18:47:53;7.60;99.90
5172;DHT22;2605;49.770;9.868;2022-09-29T18:50:22;7.50;99.90
5172;DHT22;2605;49.770;9.868;2022-09-29T18:52:48;7.40;99.90
5172;DHT22;2605;49.770;9.868;2022-09-29T18:55:15;7.30;99.90
5172;DHT22;2605;49.770;9.868;2022-09-29T18:57:42;7.30;99.90
5172;DHT22;2605;49.770;9.868;2022-09-29T19:00:11;7.30;99.90
5172;DHT22;2605;49.770;9.868;2022-09-29T19:02:39;7.20;99.90
5172;DHT22;2605;49.770;9.868;2022-09-29T19:05:05;7.20;99.90
5172;DHT22;2605;49.770;9.868;2022-09-29T19:07:32;7.10;99.90
5172;DHT22;2605;49.770;9.868;2022-09-29T19:09:58;7.10;99.90
5172;DHT22;2605;49.770;9.868;2022-09-29T19:12:23;7.10;99.90
5172;DHT22;2605;49.770;9.868;2022-09-29T19:14:53;7.20;99.90